sensor_id;sensor_type;location;lat;lon;timestamp;P1;durP1;ratioP1;P2;durP2;ratioP2
77287;SDS011;66345;42.694;23.346;2023-01-08T00:01:39;55.00;;;25.77;;
77287;SDS011;66345;42.694;23.346;2023-01-08T00:04:05;57.07;;;25.30;;
77287;SDS011;66345;42.694;23.346;2023-01-08T00:06:30;54.20;;;25.97;;
77287;SDS011;66345;42.694;23.346;2023-01-08T00:08:56;54.20;;;26.33;;
77287;SDS011;66345;42.694;23.346;2023-01-08T00:11:21;56.92;;;24.35;;
77287;SDS011;66345;42.694;23.346;2023-01-08T00:13:46;54.30;;;24.33;;
77287;SDS011;66345;42.694;23.346;2023-01-08T00:16:13;48.07;;;24.13;;
77287;SDS011;66345;42.694;23.346;2023-01-08T00:18:41;48.85;;;23.25;;
77287;SDS011;66345;42.694;23.346;2023-01-08T00:21:07;49.25;;;24.02;;
77287;SDS011;66345;42.694;23.346;2023-01-08T00:23:32;45.00;;;22.80;;
77287;SDS011;66345;42.694;23.346;2023-01-08T00:26:03;50.35;;;21.85;;
77287;SDS011;66345;42.694;23.346;2023-01-08T00:28:29;49.70;;;21.58;;
77287;SDS011;66345;42.694;23.346;2023-01-08T00:30:55;42.00;;;20.43;;
77287;SDS011;66345;42.694;23.346;2023-01-08T00:33:21;51.22;;;22.05;;
77287;SDS011;66345;42.694;23.346;2023-01-08T00:35:46;47.17;;;20.83;;
77287;SDS011;66345;42.694;23.346;2023-01-08T00:38:12;45.70;;;21.47;;
77287;SDS011;66345;42.694;23.346;2023-01-08T00:40:37;44.20;;;19.63;;
77287;SDS011;66345;42.694;23.346;2023-01-08T00:43:04;39.50;;;20.63;;
77287;SDS011;66345;42.694;23.346;2023-01-08T00:45:31;43.40;;;20.00;;
77287;SDS011;66345;42.694;23.346;2023-01-08T00:47:56;43.35;;;19.20;;
77287;SDS011;66345;42.694;23.346;2023-01-08T00:50:22;42.92;;;19.05;;
77287;SDS011;66345;42.694;23.346;2023-01-08T00:52:48;44.90;;;20.20;;
77287;SDS011;66345;42.694;23.346;2023-01-08T00:55:13;45.27;;;19.27;;
77287;SDS011;66345;42.694;23.346;2023-01-08T00:57:39;40.00;;;19.23;;
77287;SDS011;66345;42.694;23.346;2023-01-08T01:00:06;40.50;;;20.23;;
77287;SDS011;66345;42.694;23.346;2023-01-08T01:02:33;43.17;;;19.75;;
77287;SDS011;66345;42.694;23.346;2023-01-08T01:05:00;39.37;;;18.73;;
77287;SDS011;66345;42.694;23.346;2023-01-08T01:07:26;40.47;;;19.50;;
77287;SDS011;66345;42.694;23.346;2023-01-08T01:09:51;41.17;;;18.87;;
77287;SDS011;66345;42.694;23.346;2023-01-08T01:12:16;43.23;;;20.07;;
77287;SDS011;66345;42.694;23.346;2023-01-08T01:14:42;45.43;;;21.53;;
77287;SDS011;66345;42.694;23.346;2023-01-08T01:17:08;48.25;;;23.13;;
77287;SDS011;66345;42.694;23.346;2023-01-08T01:19:36;55.63;;;24.70;;
77287;SDS011;66345;42.694;23.346;2023-01-08T01:22:01;58.00;;;24.80;;
77287;SDS011;66345;42.694;23.346;2023-01-08T01:24:27;54.83;;;25.03;;
77287;SDS011;66345;42.694;23.346;2023-01-08T01:26:52;50.73;;;24.20;;
77287;SDS011;66345;42.694;23.346;2023-01-08T01:29:20;45.25;;;23.42;;
77287;SDS011;66345;42.694;23.346;2023-01-08T01:31:45;50.13;;;22.80;;
77287;SDS011;66345;42.694;23.346;2023-01-08T01:34:11;53.80;;;24.00;;
77287;SDS011;66345;42.694;23.346;2023-01-08T01:36:36;55.35;;;23.33;;
77287;SDS011;66345;42.694;23.346;2023-01-08T01:39:01;45.60;;;21.90;;
77287;SDS011;66345;42.694;23.346;2023-01-08T01:41:29;47.77;;;22.60;;
77287;SDS011;66345;42.694;23.346;2023-01-08T01:50:03;43.58;;;21.00;;
77287;SDS011;66345;42.694;23.346;2023-01-08T01:52:33;52.58;;;22.05;;
77287;SDS011;66345;42.694;23.346;2023-01-08T01:55:05;49.00;;;23.47;;
77287;SDS011;66345;42.694;23.346;2023-01-08T01:57:32;44.95;;;22.10;;
77287;SDS011;66345;42.694;23.346;2023-01-08T01:59:58;50.80;;;22.75;;
77287;SDS011;66345;42.694;23.346;2023-01-08T02:02:28;47.50;;;21.92;;
77287;SDS011;66345;42.694;23.346;2023-01-08T02:04:56;46.70;;;21.35;;
77287;SDS011;66345;42.694;23.346;2023-01-08T02:10:26;46.60;;;21.58;;
77287;SDS011;66345;42.694;23.346;2023-01-08T02:13:12;43.67;;;20.67;;
77287;SDS011;66345;42.694;23.346;2023-01-08T02:18:36;42.92;;;20.83;;
77287;SDS011;66345;42.694;23.346;2023-01-08T02:21:06;44.73;;;21.50;;
77287;SDS011;66345;42.694;23.346;2023-01-08T02:26:30;46.63;;;20.00;;
77287;SDS011;66345;42.694;23.346;2023-01-08T02:29:13;44.13;;;20.13;;
77287;SDS011;66345;42.694;23.346;2023-01-08T02:31:42;39.17;;;18.98;;
77287;SDS011;66345;42.694;23.346;2023-01-08T02:34:07;42.03;;;19.47;;
77287;SDS011;66345;42.694;23.346;2023-01-08T02:44:36;34.30;;;19.35;;
77287;SDS011;66345;42.694;23.346;2023-01-08T02:47:17;48.93;;;19.63;;
77287;SDS011;66345;42.694;23.346;2023-01-08T02:49:53;45.65;;;20.40;;
77287;SDS011;66345;42.694;23.346;2023-01-08T02:52:26;41.33;;;19.20;;
77287;SDS011;66345;42.694;23.346;2023-01-08T02:54:55;45.20;;;21.10;;
77287;SDS011;66345;42.694;23.346;2023-01-08T02:57:23;44.10;;;19.95;;
77287;SDS011;66345;42.694;23.346;2023-01-08T02:59:49;42.27;;;19.50;;
77287;SDS011;66345;42.694;23.346;2023-01-08T03:02:16;41.88;;;20.35;;
77287;SDS011;66345;42.694;23.346;2023-01-08T03:04:47;42.50;;;20.55;;
77287;SDS011;66345;42.694;23.346;2023-01-08T03:07:18;46.17;;;20.45;;
77287;SDS011;66345;42.694;23.346;2023-01-08T03:09:44;44.77;;;19.23;;
77287;SDS011;66345;42.694;23.346;2023-01-08T03:12:22;41.42;;;20.50;;
77287;SDS011;66345;42.694;23.346;2023-01-08T03:15:13;61.40;;;35.03;;
77287;SDS011;66345;42.694;23.346;2023-01-08T03:17:46;54.30;;;30.80;;
77287;SDS011;66345;42.694;23.346;2023-01-08T03:20:15;54.23;;;30.50;;
77287;SDS011;66345;42.694;23.346;2023-01-08T03:22:44;50.95;;;27.13;;
77287;SDS011;66345;42.694;23.346;2023-01-08T03:25:13;48.45;;;24.77;;
77287;SDS011;66345;42.694;23.346;2023-01-08T03:27:44;41.72;;;21.85;;
77287;SDS011;66345;42.694;23.346;2023-01-08T03:30:12;46.72;;;22.40;;
77287;SDS011;66345;42.694;23.346;2023-01-08T03:32:40;41.60;;;20.60;;
77287;SDS011;66345;42.694;23.346;2023-01-08T03:35:08;47.53;;;20.92;;
77287;SDS011;66345;42.694;23.346;2023-01-08T03:37:38;34.95;;;18.48;;
77287;SDS011;66345;42.694;23.346;2023-01-08T03:40:12;36.45;;;19.17;;
77287;SDS011;66345;42.694;23.346;2023-01-08T03:42:42;37.42;;;19.05;;
77287;SDS011;66345;42.694;23.346;2023-01-08T03:45:07;34.37;;;17.23;;
77287;SDS011;66345;42.694;23.346;2023-01-08T03:47:33;39.90;;;18.83;;
77287;SDS011;66345;42.694;23.346;2023-01-08T03:50:02;35.17;;;17.77;;
77287;SDS011;66345;42.694;23.346;2023-01-08T03:52:32;43.00;;;18.07;;
77287;SDS011;66345;42.694;23.346;2023-01-08T03:54:57;36.63;;;17.23;;
77287;SDS011;66345;42.694;23.346;2023-01-08T03:57:23;37.17;;;16.53;;
77287;SDS011;66345;42.694;23.346;2023-01-08T03:59:49;35.58;;;17.33;;
77287;SDS011;66345;42.694;23.346;2023-01-08T04:02:14;35.80;;;16.30;;
77287;SDS011;66345;42.694;23.346;2023-01-08T04:04:40;33.58;;;16.58;;
77287;SDS011;66345;42.694;23.346;2023-01-08T04:07:06;35.03;;;16.00;;
77287;SDS011;66345;42.694;23.346;2023-01-08T04:09:34;29.75;;;14.63;;
77287;SDS011;66345;42.694;23.346;2023-01-08T04:11:59;35.03;;;15.43;;
77287;SDS011;66345;42.694;23.346;2023-01-08T04:14:25;34.33;;;15.90;;
77287;SDS011;66345;42.694;23.346;2023-01-08T04:16:50;33.30;;;15.60;;
77287;SDS011;66345;42.694;23.346;2023-01-08T04:19:15;35.83;;;16.00;;
77287;SDS011;66345;42.694;23.346;2023-01-08T04:21:41;37.50;;;17.17;;
77287;SDS011;66345;42.694;23.346;2023-01-08T04:24:06;42.50;;;18.50;;
77287;SDS011;66345;42.694;23.346;2023-01-08T04:26:32;47.55;;;22.80;;
77287;SDS011;66345;42.694;23.346;2023-01-08T04:28:58;52.47;;;24.37;;
77287;SDS011;66345;42.694;23.346;2023-01-08T04:31:25;48.55;;;23.08;;
77287;SDS011;66345;42.694;23.346;2023-01-08T04:33:51;56.13;;;25.73;;
77287;SDS011;66345;42.694;23.346;2023-01-08T04:36:16;51.95;;;24.92;;
77287;SDS011;66345;42.694;23.346;2023-01-08T04:38:42;57.57;;;28.00;;
77287;SDS011;66345;42.694;23.346;2023-01-08T04:41:07;52.07;;;25.87;;
77287;SDS011;66345;42.694;23.346;2023-01-08T04:43:33;58.60;;;26.27;;
77287;SDS011;66345;42.694;23.346;2023-01-08T04:45:59;50.40;;;23.20;;
77287;SDS011;66345;42.694;23.346;2023-01-08T04:48:25;48.58;;;21.60;;
77287;SDS011;66345;42.694;23.346;2023-01-08T04:50:51;51.70;;;23.02;;
77287;SDS011;66345;42.694;23.346;2023-01-08T04:53:17;50.28;;;23.52;;
77287;SDS011;66345;42.694;23.346;2023-01-08T04:55:43;62.13;;;27.97;;
77287;SDS011;66345;42.694;23.346;2023-01-08T04:58:08;60.00;;;29.67;;
77287;SDS011;66345;42.694;23.346;2023-01-08T05:00:34;59.40;;;27.20;;
77287;SDS011;66345;42.694;23.346;2023-01-08T05:02:59;61.85;;;28.73;;
77287;SDS011;66345;42.694;23.346;2023-01-08T05:05:25;53.67;;;26.87;;
77287;SDS011;66345;42.694;23.346;2023-01-08T05:07:50;60.10;;;27.70;;
77287;SDS011;66345;42.694;23.346;2023-01-08T05:10:16;58.42;;;27.58;;
77287;SDS011;66345;42.694;23.346;2023-01-08T05:12:41;55.77;;;26.33;;
77287;SDS011;66345;42.694;23.346;2023-01-08T05:15:07;54.97;;;25.33;;
77287;SDS011;66345;42.694;23.346;2023-01-08T05:17:33;54.42;;;26.10;;
77287;SDS011;66345;42.694;23.346;2023-01-08T05:19:58;59.63;;;27.40;;
77287;SDS011;66345;42.694;23.346;2023-01-08T05:22:23;61.50;;;27.30;;
77287;SDS011;66345;42.694;23.346;2023-01-08T05:24:49;62.43;;;29.97;;
77287;SDS011;66345;42.694;23.346;2023-01-08T05:27:14;72.05;;;32.85;;
77287;SDS011;66345;42.694;23.346;2023-01-08T05:29:40;72.33;;;31.30;;
77287;SDS011;66345;42.694;23.346;2023-01-08T05:32:05;75.30;;;32.87;;
77287;SDS011;66345;42.694;23.346;2023-01-08T05:34:39;71.97;;;29.88;;
77287;SDS011;66345;42.694;23.346;2023-01-08T05:37:04;63.53;;;27.73;;
77287;SDS011;66345;42.694;23.346;2023-01-08T05:39:29;54.60;;;25.63;;
77287;SDS011;66345;42.694;23.346;2023-01-08T05:41:55;58.80;;;27.40;;
77287;SDS011;66345;42.694;23.346;2023-01-08T05:44:20;59.20;;;26.60;;
77287;SDS011;66345;42.694;23.346;2023-01-08T05:46:46;61.35;;;26.33;;
77287;SDS011;66345;42.694;23.346;2023-01-08T05:49:11;57.90;;;25.90;;
77287;SDS011;66345;42.694;23.346;2023-01-08T05:51:36;55.40;;;26.07;;
77287;SDS011;66345;42.694;23.346;2023-01-08T05:54:02;56.47;;;24.67;;
77287;SDS011;66345;42.694;23.346;2023-01-08T05:56:27;57.13;;;25.45;;
77287;SDS011;66345;42.694;23.346;2023-01-08T05:58:53;54.25;;;25.50;;
77287;SDS011;66345;42.694;23.346;2023-01-08T06:01:20;59.07;;;26.63;;
77287;SDS011;66345;42.694;23.346;2023-01-08T06:03:46;56.78;;;25.80;;
77287;SDS011;66345;42.694;23.346;2023-01-08T06:06:11;64.57;;;28.40;;
77287;SDS011;66345;42.694;23.346;2023-01-08T06:08:37;64.60;;;28.00;;
77287;SDS011;66345;42.694;23.346;2023-01-08T06:11:04;66.55;;;28.92;;
77287;SDS011;66345;42.694;23.346;2023-01-08T06:13:30;58.40;;;26.92;;
77287;SDS011;66345;42.694;23.346;2023-01-08T06:15:57;62.10;;;27.27;;
77287;SDS011;66345;42.694;23.346;2023-01-08T06:18:27;63.25;;;30.27;;
77287;SDS011;66345;42.694;23.346;2023-01-08T06:20:54;71.80;;;32.80;;
77287;SDS011;66345;42.694;23.346;2023-01-08T06:23:20;72.20;;;34.23;;
77287;SDS011;66345;42.694;23.346;2023-01-08T06:25:50;72.90;;;33.47;;
77287;SDS011;66345;42.694;23.346;2023-01-08T06:28:19;74.20;;;33.83;;
77287;SDS011;66345;42.694;23.346;2023-01-08T06:30:46;76.45;;;33.40;;
77287;SDS011;66345;42.694;23.346;2023-01-08T06:33:11;75.97;;;33.87;;
77287;SDS011;66345;42.694;23.346;2023-01-08T06:35:37;69.97;;;33.03;;
77287;SDS011;66345;42.694;23.346;2023-01-08T06:38:02;69.07;;;31.90;;
77287;SDS011;66345;42.694;23.346;2023-01-08T06:40:27;64.43;;;29.10;;
77287;SDS011;66345;42.694;23.346;2023-01-08T06:42:53;59.27;;;28.80;;
77287;SDS011;66345;42.694;23.346;2023-01-08T06:45:18;56.37;;;27.80;;
77287;SDS011;66345;42.694;23.346;2023-01-08T06:47:44;57.67;;;28.20;;
77287;SDS011;66345;42.694;23.346;2023-01-08T06:50:09;58.00;;;27.03;;
77287;SDS011;66345;42.694;23.346;2023-01-08T06:52:36;58.10;;;27.77;;
77287;SDS011;66345;42.694;23.346;2023-01-08T06:55:02;60.08;;;27.08;;
77287;SDS011;66345;42.694;23.346;2023-01-08T06:57:29;55.40;;;26.55;;
77287;SDS011;66345;42.694;23.346;2023-01-08T06:59:55;59.03;;;28.15;;
77287;SDS011;66345;42.694;23.346;2023-01-08T07:02:20;66.50;;;29.27;;
77287;SDS011;66345;42.694;23.346;2023-01-08T07:04:45;57.60;;;26.53;;
77287;SDS011;66345;42.694;23.346;2023-01-08T07:07:12;57.67;;;27.00;;
77287;SDS011;66345;42.694;23.346;2023-01-08T07:09:38;58.15;;;29.52;;
77287;SDS011;66345;42.694;23.346;2023-01-08T07:12:05;64.88;;;32.05;;
77287;SDS011;66345;42.694;23.346;2023-01-08T07:14:32;56.40;;;29.60;;
77287;SDS011;66345;42.694;23.346;2023-01-08T07:16:58;61.93;;;30.93;;
77287;SDS011;66345;42.694;23.346;2023-01-08T07:19:23;62.13;;;31.00;;
77287;SDS011;66345;42.694;23.346;2023-01-08T07:21:49;60.30;;;31.37;;
77287;SDS011;66345;42.694;23.346;2023-01-08T07:24:14;64.50;;;32.40;;
77287;SDS011;66345;42.694;23.346;2023-01-08T07:26:39;57.42;;;28.55;;
77287;SDS011;66345;42.694;23.346;2023-01-08T07:29:05;64.23;;;29.17;;
77287;SDS011;66345;42.694;23.346;2023-01-08T07:31:31;52.43;;;26.10;;
77287;SDS011;66345;42.694;23.346;2023-01-08T07:33:56;51.75;;;26.48;;
77287;SDS011;66345;42.694;23.346;2023-01-08T07:36:22;44.63;;;22.53;;
77287;SDS011;66345;42.694;23.346;2023-01-08T07:38:48;53.67;;;25.15;;
77287;SDS011;66345;42.694;23.346;2023-01-08T07:41:14;53.77;;;25.50;;
77287;SDS011;66345;42.694;23.346;2023-01-08T07:43:40;54.10;;;25.90;;
77287;SDS011;66345;42.694;23.346;2023-01-08T07:46:05;57.33;;;27.57;;
77287;SDS011;66345;42.694;23.346;2023-01-08T07:48:31;52.53;;;26.33;;
77287;SDS011;66345;42.694;23.346;2023-01-08T07:51:03;50.70;;;26.13;;
77287;SDS011;66345;42.694;23.346;2023-01-08T07:53:30;60.10;;;24.92;;
77287;SDS011;66345;42.694;23.346;2023-01-08T07:56:03;54.83;;;24.43;;
77287;SDS011;66345;42.694;23.346;2023-01-08T07:58:31;52.00;;;25.70;;
77287;SDS011;66345;42.694;23.346;2023-01-08T08:00:57;54.88;;;24.88;;
77287;SDS011;66345;42.694;23.346;2023-01-08T08:03:23;48.13;;;23.90;;
77287;SDS011;66345;42.694;23.346;2023-01-08T08:05:49;51.45;;;24.27;;
77287;SDS011;66345;42.694;23.346;2023-01-08T08:08:14;56.60;;;24.58;;
77287;SDS011;66345;42.694;23.346;2023-01-08T08:10:41;45.70;;;22.47;;
77287;SDS011;66345;42.694;23.346;2023-01-08T08:13:07;46.40;;;24.85;;
77287;SDS011;66345;42.694;23.346;2023-01-08T08:15:33;44.83;;;24.90;;
77287;SDS011;66345;42.694;23.346;2023-01-08T08:17:59;44.63;;;25.20;;
77287;SDS011;66345;42.694;23.346;2023-01-08T08:20:25;47.58;;;24.45;;
77287;SDS011;66345;42.694;23.346;2023-01-08T08:22:51;49.20;;;25.93;;
77287;SDS011;66345;42.694;23.346;2023-01-08T08:25:17;48.92;;;26.02;;
77287;SDS011;66345;42.694;23.346;2023-01-08T08:27:43;54.53;;;27.80;;
77287;SDS011;66345;42.694;23.346;2023-01-08T08:30:09;63.07;;;31.97;;
77287;SDS011;66345;42.694;23.346;2023-01-08T08:32:36;62.33;;;32.33;;
77287;SDS011;66345;42.694;23.346;2023-01-08T08:35:02;58.08;;;30.98;;
77287;SDS011;66345;42.694;23.346;2023-01-08T08:37:28;56.43;;;30.43;;
77287;SDS011;66345;42.694;23.346;2023-01-08T08:39:54;54.83;;;29.17;;
77287;SDS011;66345;42.694;23.346;2023-01-08T08:42:19;48.33;;;27.57;;
77287;SDS011;66345;42.694;23.346;2023-01-08T08:44:45;47.60;;;27.13;;
77287;SDS011;66345;42.694;23.346;2023-01-08T08:47:10;50.15;;;27.98;;
77287;SDS011;66345;42.694;23.346;2023-01-08T08:49:36;48.87;;;27.83;;
77287;SDS011;66345;42.694;23.346;2023-01-08T08:52:04;46.50;;;27.73;;
77287;SDS011;66345;42.694;23.346;2023-01-08T08:54:29;54.73;;;28.00;;
77287;SDS011;66345;42.694;23.346;2023-01-08T08:56:54;48.93;;;26.77;;
77287;SDS011;66345;42.694;23.346;2023-01-08T08:59:20;45.50;;;26.83;;
77287;SDS011;66345;42.694;23.346;2023-01-08T09:01:45;50.77;;;27.53;;
77287;SDS011;66345;42.694;23.346;2023-01-08T09:04:11;50.97;;;27.97;;
77287;SDS011;66345;42.694;23.346;2023-01-08T09:06:36;54.30;;;27.70;;
77287;SDS011;66345;42.694;23.346;2023-01-08T09:09:01;50.87;;;27.40;;
77287;SDS011;66345;42.694;23.346;2023-01-08T09:11:27;50.25;;;27.02;;
77287;SDS011;66345;42.694;23.346;2023-01-08T09:13:53;48.47;;;26.07;;
77287;SDS011;66345;42.694;23.346;2023-01-08T09:16:18;48.17;;;25.17;;
77287;SDS011;66345;42.694;23.346;2023-01-08T09:18:44;46.22;;;26.00;;
77287;SDS011;66345;42.694;23.346;2023-01-08T09:21:09;48.55;;;26.13;;
77287;SDS011;66345;42.694;23.346;2023-01-08T09:23:35;49.10;;;25.63;;
77287;SDS011;66345;42.694;23.346;2023-01-08T09:26:01;51.50;;;27.92;;
77287;SDS011;66345;42.694;23.346;2023-01-08T09:28:28;49.88;;;26.30;;
77287;SDS011;66345;42.694;23.346;2023-01-08T09:30:53;47.20;;;24.73;;
77287;SDS011;66345;42.694;23.346;2023-01-08T09:33:19;46.90;;;25.47;;
77287;SDS011;66345;42.694;23.346;2023-01-08T09:35:44;51.83;;;26.73;;
77287;SDS011;66345;42.694;23.346;2023-01-08T09:38:10;44.20;;;23.87;;
77287;SDS011;66345;42.694;23.346;2023-01-08T09:40:55;50.40;;;27.37;;
77287;SDS011;66345;42.694;23.346;2023-01-08T09:43:33;50.05;;;27.85;;
77287;SDS011;66345;42.694;23.346;2023-01-08T09:46:03;54.42;;;29.15;;
77287;SDS011;66345;42.694;23.346;2023-01-08T09:48:31;59.40;;;28.30;;
77287;SDS011;66345;42.694;23.346;2023-01-08T09:51:00;46.85;;;25.95;;
77287;SDS011;66345;42.694;23.346;2023-01-08T09:53:28;54.50;;;28.48;;
77287;SDS011;66345;42.694;23.346;2023-01-08T09:55:58;41.53;;;23.27;;
77287;SDS011;66345;42.694;23.346;2023-01-08T09:58:36;38.47;;;21.63;;
77287;SDS011;66345;42.694;23.346;2023-01-08T10:01:04;36.20;;;20.97;;
77287;SDS011;66345;42.694;23.346;2023-01-08T10:03:38;39.85;;;19.55;;
77287;SDS011;66345;42.694;23.346;2023-01-08T10:06:07;38.45;;;20.42;;
77287;SDS011;66345;42.694;23.346;2023-01-08T10:08:34;36.15;;;19.98;;
77287;SDS011;66345;42.694;23.346;2023-01-08T10:11:00;37.77;;;20.20;;
77287;SDS011;66345;42.694;23.346;2023-01-08T10:13:27;37.65;;;19.50;;
77287;SDS011;66345;42.694;23.346;2023-01-08T10:15:52;38.53;;;20.03;;
77287;SDS011;66345;42.694;23.346;2023-01-08T10:18:18;37.30;;;20.37;;
77287;SDS011;66345;42.694;23.346;2023-01-08T10:20:47;36.22;;;19.63;;
77287;SDS011;66345;42.694;23.346;2023-01-08T10:28:34;39.63;;;20.45;;
77287;SDS011;66345;42.694;23.346;2023-01-08T10:31:03;36.67;;;19.63;;
77287;SDS011;66345;42.694;23.346;2023-01-08T10:33:41;36.85;;;20.63;;
77287;SDS011;66345;42.694;23.346;2023-01-08T10:36:08;37.00;;;20.85;;
77287;SDS011;66345;42.694;23.346;2023-01-08T10:38:41;40.15;;;23.98;;
77287;SDS011;66345;42.694;23.346;2023-01-08T10:41:14;41.10;;;24.97;;
77287;SDS011;66345;42.694;23.346;2023-01-08T10:46:23;44.10;;;24.80;;
77287;SDS011;66345;42.694;23.346;2023-01-08T10:48:56;42.10;;;23.40;;
77287;SDS011;66345;42.694;23.346;2023-01-08T10:51:25;40.17;;;21.58;;
77287;SDS011;66345;42.694;23.346;2023-01-08T10:53:53;32.20;;;19.02;;
77287;SDS011;66345;42.694;23.346;2023-01-08T10:56:23;33.75;;;19.35;;
77287;SDS011;66345;42.694;23.346;2023-01-08T10:58:53;31.73;;;19.17;;
77287;SDS011;66345;42.694;23.346;2023-01-08T11:01:26;31.50;;;18.15;;
77287;SDS011;66345;42.694;23.346;2023-01-08T11:06:33;28.85;;;18.58;;
77287;SDS011;66345;42.694;23.346;2023-01-08T11:11:39;32.85;;;19.08;;
77287;SDS011;66345;42.694;23.346;2023-01-08T11:14:10;32.50;;;18.90;;
77287;SDS011;66345;42.694;23.346;2023-01-08T11:16:44;32.03;;;19.38;;
77287;SDS011;66345;42.694;23.346;2023-01-08T11:19:15;31.55;;;19.85;;
77287;SDS011;66345;42.694;23.346;2023-01-08T11:22:00;33.10;;;19.98;;
77287;SDS011;66345;42.694;23.346;2023-01-08T11:24:39;31.13;;;18.38;;
77287;SDS011;66345;42.694;23.346;2023-01-08T11:29:44;34.15;;;19.00;;
77287;SDS011;66345;42.694;23.346;2023-01-08T11:40:09;29.63;;;17.27;;
77287;SDS011;66345;42.694;23.346;2023-01-08T11:50:40;28.90;;;15.60;;
77287;SDS011;66345;42.694;23.346;2023-01-08T12:07:24;26.55;;;14.43;;
77287;SDS011;66345;42.694;23.346;2023-01-08T12:15:18;23.13;;;12.73;;
77287;SDS011;66345;42.694;23.346;2023-01-08T12:20:58;22.95;;;13.02;;
77287;SDS011;66345;42.694;23.346;2023-01-08T12:37:11;22.80;;;12.77;;
77287;SDS011;66345;42.694;23.346;2023-01-08T12:40:00;24.38;;;13.38;;
77287;SDS011;66345;42.694;23.346;2023-01-08T12:42:32;22.40;;;12.63;;
77287;SDS011;66345;42.694;23.346;2023-01-08T12:45:01;26.63;;;12.27;;
77287;SDS011;66345;42.694;23.346;2023-01-08T12:47:31;24.10;;;12.77;;
77287;SDS011;66345;42.694;23.346;2023-01-08T12:50:03;24.42;;;12.13;;
77287;SDS011;66345;42.694;23.346;2023-01-08T12:55:45;20.75;;;11.60;;
77287;SDS011;66345;42.694;23.346;2023-01-08T13:01:10;22.00;;;11.98;;
77287;SDS011;66345;42.694;23.346;2023-01-08T13:03:47;22.00;;;11.90;;
77287;SDS011;66345;42.694;23.346;2023-01-08T13:06:14;23.92;;;11.88;;
77287;SDS011;66345;42.694;23.346;2023-01-08T13:08:49;19.90;;;11.52;;
77287;SDS011;66345;42.694;23.346;2023-01-08T13:11:24;19.95;;;11.68;;
77287;SDS011;66345;42.694;23.346;2023-01-08T13:14:06;22.83;;;11.02;;
77287;SDS011;66345;42.694;23.346;2023-01-08T13:16:36;23.85;;;11.85;;
77287;SDS011;66345;42.694;23.346;2023-01-08T13:19:03;19.67;;;11.23;;
77287;SDS011;66345;42.694;23.346;2023-01-08T13:24:02;18.98;;;11.30;;
77287;SDS011;66345;42.694;23.346;2023-01-08T13:26:47;21.60;;;10.48;;
77287;SDS011;66345;42.694;23.346;2023-01-08T13:29:23;20.27;;;11.50;;
77287;SDS011;66345;42.694;23.346;2023-01-08T13:31:59;17.55;;;10.90;;
77287;SDS011;66345;42.694;23.346;2023-01-08T13:34:36;22.02;;;11.43;;
77287;SDS011;66345;42.694;23.346;2023-01-08T13:37:04;23.35;;;12.30;;
77287;SDS011;66345;42.694;23.346;2023-01-08T13:39:32;22.23;;;12.55;;
77287;SDS011;66345;42.694;23.346;2023-01-08T13:41:59;22.77;;;11.95;;
77287;SDS011;66345;42.694;23.346;2023-01-08T13:44:27;25.50;;;12.83;;
77287;SDS011;66345;42.694;23.346;2023-01-08T13:46:58;23.25;;;12.25;;
77287;SDS011;66345;42.694;23.346;2023-01-08T13:55:11;22.52;;;12.15;;
77287;SDS011;66345;42.694;23.346;2023-01-08T13:57:56;24.37;;;12.90;;
77287;SDS011;66345;42.694;23.346;2023-01-08T14:03:02;24.92;;;13.48;;
77287;SDS011;66345;42.694;23.346;2023-01-08T14:05:28;25.77;;;13.77;;
77287;SDS011;66345;42.694;23.346;2023-01-08T14:07:55;28.35;;;14.57;;
77287;SDS011;66345;42.694;23.346;2023-01-08T14:10:22;26.77;;;13.82;;
77287;SDS011;66345;42.694;23.346;2023-01-08T14:12:49;26.20;;;13.43;;
77287;SDS011;66345;42.694;23.346;2023-01-08T14:15:25;23.67;;;13.17;;
77287;SDS011;66345;42.694;23.346;2023-01-08T14:17:53;27.13;;;14.38;;
77287;SDS011;66345;42.694;23.346;2023-01-08T14:20:34;26.80;;;14.68;;
77287;SDS011;66345;42.694;23.346;2023-01-08T14:23:06;25.90;;;15.15;;
77287;SDS011;66345;42.694;23.346;2023-01-08T14:25:35;26.77;;;15.45;;
77287;SDS011;66345;42.694;23.346;2023-01-08T14:28:02;32.87;;;16.93;;
77287;SDS011;66345;42.694;23.346;2023-01-08T14:30:29;31.52;;;18.25;;
77287;SDS011;66345;42.694;23.346;2023-01-08T14:32:55;33.38;;;18.23;;
77287;SDS011;66345;42.694;23.346;2023-01-08T14:35:24;37.47;;;19.23;;
77287;SDS011;66345;42.694;23.346;2023-01-08T14:37:55;35.38;;;18.90;;
77287;SDS011;66345;42.694;23.346;2023-01-08T14:40:40;31.45;;;18.35;;
77287;SDS011;66345;42.694;23.346;2023-01-08T14:43:13;35.83;;;18.47;;
77287;SDS011;66345;42.694;23.346;2023-01-08T14:45:45;38.28;;;19.15;;
77287;SDS011;66345;42.694;23.346;2023-01-08T14:50:39;36.43;;;19.07;;
77287;SDS011;66345;42.694;23.346;2023-01-08T14:55:59;42.40;;;20.45;;
77287;SDS011;66345;42.694;23.346;2023-01-08T14:58:28;44.40;;;21.42;;
77287;SDS011;66345;42.694;23.346;2023-01-08T15:00:58;41.13;;;20.67;;
77287;SDS011;66345;42.694;23.346;2023-01-08T15:03:34;43.50;;;21.15;;
77287;SDS011;66345;42.694;23.346;2023-01-08T15:06:02;39.95;;;21.05;;
77287;SDS011;66345;42.694;23.346;2023-01-08T15:08:33;38.15;;;20.88;;
77287;SDS011;66345;42.694;23.346;2023-01-08T15:11:04;37.97;;;20.70;;
77287;SDS011;66345;42.694;23.346;2023-01-08T15:13:32;41.63;;;20.83;;
77287;SDS011;66345;42.694;23.346;2023-01-08T15:18:33;34.15;;;20.85;;
77287;SDS011;66345;42.694;23.346;2023-01-08T15:21:01;44.22;;;21.25;;
77287;SDS011;66345;42.694;23.346;2023-01-08T15:23:30;41.92;;;21.40;;
77287;SDS011;66345;42.694;23.346;2023-01-08T15:26:11;41.43;;;20.40;;
77287;SDS011;66345;42.694;23.346;2023-01-08T15:28:51;37.25;;;19.15;;
77287;SDS011;66345;42.694;23.346;2023-01-08T15:31:27;35.55;;;19.33;;
77287;SDS011;66345;42.694;23.346;2023-01-08T15:33:55;44.47;;;20.98;;
77287;SDS011;66345;42.694;23.346;2023-01-08T15:36:22;45.20;;;20.88;;
77287;SDS011;66345;42.694;23.346;2023-01-08T15:38:48;38.67;;;20.20;;
77287;SDS011;66345;42.694;23.346;2023-01-08T15:41:15;44.53;;;21.42;;
77287;SDS011;66345;42.694;23.346;2023-01-08T15:44:02;42.17;;;19.93;;
77287;SDS011;66345;42.694;23.346;2023-01-08T15:46:29;44.67;;;20.40;;
77287;SDS011;66345;42.694;23.346;2023-01-08T15:48:57;45.13;;;20.70;;
77287;SDS011;66345;42.694;23.346;2023-01-08T15:51:23;42.33;;;21.03;;
77287;SDS011;66345;42.694;23.346;2023-01-08T15:53:49;45.85;;;20.25;;
77287;SDS011;66345;42.694;23.346;2023-01-08T15:56:14;47.10;;;21.30;;
77287;SDS011;66345;42.694;23.346;2023-01-08T15:58:40;43.97;;;21.25;;
77287;SDS011;66345;42.694;23.346;2023-01-08T16:01:05;41.43;;;21.30;;
77287;SDS011;66345;42.694;23.346;2023-01-08T16:03:31;42.87;;;20.37;;
77287;SDS011;66345;42.694;23.346;2023-01-08T16:05:56;43.03;;;20.13;;
77287;SDS011;66345;42.694;23.346;2023-01-08T16:08:21;46.65;;;19.83;;
77287;SDS011;66345;42.694;23.346;2023-01-08T16:10:50;40.38;;;20.40;;